createdAt,value
2018-11-23T00:00:28.615Z,1026.54
2018-11-23T00:01:28.641Z,1026.53
2018-11-23T00:02:28.667Z,1026.51
2018-11-23T00:03:28.690Z,1026.54
2018-11-23T00:04:28.716Z,1026.52
2018-11-23T00:05:28.740Z,1026.51
2018-11-23T00:06:28.769Z,1026.52
2018-11-23T00:07:28.795Z,1026.52
2018-11-23T00:08:28.818Z,1026.50
2018-11-23T00:09:28.846Z,1026.47
2018-11-23T00:10:28.869Z,1026.49
2018-11-23T00:11:28.895Z,1026.47
2018-11-23T00:12:28.918Z,1026.44
2018-11-23T00:13:28.947Z,1026.46
2018-11-23T00:14:28.976Z,1026.43
2018-11-23T00:15:28.997Z,1026.48
2018-11-23T00:16:29.027Z,1026.42
2018-11-23T00:17:29.045Z,1026.43
2018-11-23T00:18:29.072Z,1026.39
2018-11-23T00:19:29.096Z,1026.38
2018-11-23T00:20:29.125Z,1026.37
2018-11-23T00:21:29.147Z,1026.41
2018-11-23T00:22:29.172Z,1026.38
2018-11-23T00:23:29.198Z,1026.38
2018-11-23T00:24:29.223Z,1026.38
2018-11-23T00:25:29.298Z,1026.41
2018-11-23T00:26:29.274Z,1026.40
2018-11-23T00:27:29.299Z,1026.38
2018-11-23T00:28:29.329Z,1026.38
2018-11-23T00:29:29.350Z,1026.40
2018-11-23T00:30:29.375Z,1026.39
2018-11-23T00:31:29.403Z,1026.39
2018-11-23T00:32:29.425Z,1026.41
2018-11-23T00:33:29.450Z,1026.42
2018-11-23T00:34:29.475Z,1026.42
2018-11-23T00:35:29.499Z,1026.35
2018-11-23T00:36:29.528Z,1026.39
2018-11-23T00:37:29.551Z,1026.37
2018-11-23T00:38:29.579Z,1026.37
2018-11-23T00:39:29.603Z,1026.40
2018-11-23T00:40:29.628Z,1026.37
2018-11-23T00:41:29.652Z,1026.36
2018-11-23T00:42:29.677Z,1026.37
2018-11-23T00:43:29.699Z,1026.39
2018-11-23T00:44:29.725Z,1026.36
2018-11-23T00:45:29.752Z,1026.35
2018-11-23T00:46:29.777Z,1026.37
2018-11-23T00:47:29.805Z,1026.34
2018-11-23T00:48:29.826Z,1026.33
2018-11-23T00:49:29.851Z,1026.37
2018-11-23T00:50:29.876Z,1026.37
2018-11-23T00:51:29.902Z,1026.43
2018-11-23T00:52:29.929Z,1026.41
2018-11-23T00:53:29.953Z,1026.43
2018-11-23T00:54:29.976Z,1026.43
2018-11-23T00:55:30.005Z,1026.46
2018-11-23T00:56:30.026Z,1026.49
2018-11-23T00:57:30.057Z,1026.48
2018-11-23T00:58:30.076Z,1026.49
2018-11-23T00:59:30.101Z,1026.49
2018-11-23T01:00:30.129Z,1026.51
2018-11-23T01:01:30.154Z,1026.51
2018-11-23T01:02:30.177Z,1026.48
2018-11-23T01:03:30.201Z,1026.52
2018-11-23T01:04:30.229Z,1026.51
2018-11-23T01:05:30.256Z,1026.46
2018-11-23T01:06:30.277Z,1026.44
2018-11-23T01:07:30.302Z,1026.47
2018-11-23T01:08:30.335Z,1026.45
2018-11-23T01:09:30.353Z,1026.46
2018-11-23T01:10:30.377Z,1026.39
2018-11-23T01:11:30.403Z,1026.42
2018-11-23T01:12:30.435Z,1026.45
2018-11-23T01:13:30.455Z,1026.45
2018-11-23T01:14:30.480Z,1026.46
2018-11-23T01:15:30.502Z,1026.47
2018-11-23T01:16:30.530Z,1026.51
2018-11-23T01:17:30.556Z,1026.47
2018-11-23T01:18:30.580Z,1026.47
2018-11-23T01:19:30.607Z,1026.50
2018-11-23T01:20:30.638Z,1026.49
2018-11-23T01:21:30.655Z,1026.51
2018-11-23T01:22:30.683Z,1026.49
2018-11-23T01:23:30.708Z,1026.55
2018-11-23T01:24:30.734Z,1026.53
2018-11-23T01:25:30.755Z,1026.55
2018-11-23T01:26:30.781Z,1026.54
2018-11-23T01:27:30.808Z,1026.53
2018-11-23T01:28:30.831Z,1026.52
2018-11-23T01:29:30.857Z,1026.51
2018-11-23T01:30:30.881Z,1026.51
2018-11-23T01:31:30.904Z,1026.50
2018-11-23T01:32:30.930Z,1026.44
2018-11-23T01:33:30.957Z,1026.49
2018-11-23T01:34:30.985Z,1026.45
2018-11-23T01:35:31.009Z,1026.50
2018-11-23T01:36:31.031Z,1026.54
2018-11-23T01:37:31.061Z,1026.51
2018-11-23T01:38:31.081Z,1026.47
2018-11-23T01:39:31.109Z,1026.48
2018-11-23T01:40:31.132Z,1026.48
2018-11-23T01:41:31.158Z,1026.50
2018-11-23T01:42:31.182Z,1026.50
2018-11-23T01:43:31.210Z,1026.50
2018-11-23T01:44:31.232Z,1026.49
2018-11-23T01:45:31.262Z,1026.43
2018-11-23T01:46:31.284Z,1026.45
2018-11-23T01:47:31.309Z,1026.41
2018-11-23T01:48:31.333Z,1026.40
2018-11-23T01:49:31.358Z,1026.37
2018-11-23T01:50:31.385Z,1026.39
2018-11-23T01:51:31.410Z,1026.41
2018-11-23T01:52:31.436Z,1026.38
2018-11-23T01:53:31.460Z,1026.35
2018-11-23T01:54:31.487Z,1026.36
2018-11-23T01:55:31.510Z,1026.38
2018-11-23T01:56:31.536Z,1026.39
2018-11-23T01:57:31.558Z,1026.40
2018-11-23T01:58:31.583Z,1026.36
2018-11-23T01:59:31.612Z,1026.41
2018-11-23T02:00:31.635Z,1026.35
2018-11-23T02:01:31.666Z,1026.39
2018-11-23T02:02:31.684Z,1026.44
2018-11-23T02:03:31.710Z,1026.39
2018-11-23T02:04:31.735Z,1026.37
2018-11-23T02:05:31.762Z,1026.37
2018-11-23T02:06:31.786Z,1026.38
2018-11-23T02:07:31.812Z,1026.32
2018-11-23T02:08:31.835Z,1026.34
2018-11-23T02:09:31.859Z,1026.33
2018-11-23T02:10:31.890Z,1026.36
2018-11-23T02:11:31.910Z,1026.33
2018-11-23T02:12:31.937Z,1026.33
2018-11-23T02:13:31.962Z,1026.30
2018-11-23T02:14:31.989Z,1026.31
2018-11-23T02:15:32.013Z,1026.33
2018-11-23T02:16:32.036Z,1026.34
2018-11-23T02:17:32.060Z,1026.35
2018-11-23T02:18:32.088Z,1026.32
2018-11-23T02:19:32.113Z,1026.33
2018-11-23T02:20:32.136Z,1026.35
2018-11-23T02:21:32.162Z,1026.30
2018-11-23T02:22:32.190Z,1026.31
2018-11-23T02:23:32.215Z,1026.31
2018-11-23T02:24:32.235Z,1026.29
2018-11-23T02:25:32.260Z,1026.29
2018-11-23T02:26:32.286Z,1026.35
2018-11-23T02:27:32.313Z,1026.34
2018-11-23T02:28:32.341Z,1026.31
2018-11-23T02:29:32.361Z,1026.38
2018-11-23T02:30:32.387Z,1026.38
2018-11-23T02:31:32.412Z,1026.36
2018-11-23T02:32:32.440Z,1026.34
2018-11-23T02:33:32.460Z,1026.38
2018-11-23T02:34:32.486Z,1026.39
2018-11-23T02:35:32.510Z,1026.39
2018-11-23T02:36:32.541Z,1026.39
2018-11-23T02:37:32.568Z,1026.43
2018-11-23T02:38:32.588Z,1026.44
2018-11-23T02:39:32.611Z,1026.44
2018-11-23T02:40:32.635Z,1026.44
2018-11-23T02:41:32.661Z,1026.43
2018-11-23T02:42:32.690Z,1026.42
2018-11-23T02:43:32.709Z,1026.46
2018-11-23T02:44:32.740Z,1026.43
2018-11-23T02:45:32.760Z,1026.40
2018-11-23T02:46:32.791Z,1026.45
2018-11-23T02:47:32.811Z,1026.39
2018-11-23T02:48:32.839Z,1026.45
2018-11-23T02:49:32.861Z,1026.46
2018-11-23T02:50:32.886Z,1026.41
2018-11-23T02:51:32.913Z,1026.40
2018-11-23T02:52:32.938Z,1026.41
2018-11-23T02:53:32.963Z,1026.40
2018-11-23T02:54:32.987Z,1026.40
2018-11-23T02:55:33.010Z,1026.36
2018-11-23T02:56:33.036Z,1026.35
2018-11-23T02:57:33.062Z,1026.34
2018-11-23T02:58:33.091Z,1026.36
2018-11-23T02:59:33.117Z,1026.36
2018-11-23T03:00:33.136Z,1026.38
2018-11-23T03:01:33.164Z,1026.36
2018-11-23T03:02:33.186Z,1026.36
2018-11-23T03:03:33.210Z,1026.36
2018-11-23T03:04:33.238Z,1026.38
2018-11-23T03:05:33.264Z,1026.32
2018-11-23T03:06:33.287Z,1026.36
2018-11-23T03:07:33.310Z,1026.33
2018-11-23T03:08:33.335Z,1026.32
2018-11-23T03:09:33.362Z,1026.35
2018-11-23T03:10:33.385Z,1026.33
2018-11-23T03:11:33.411Z,1026.34
2018-11-23T03:12:33.437Z,1026.37
2018-11-23T03:13:33.459Z,1026.36
2018-11-23T03:14:33.482Z,1026.30
2018-11-23T03:15:33.518Z,1026.32
2018-11-23T03:16:33.536Z,1026.32
2018-11-23T03:17:33.562Z,1026.34
2018-11-23T03:18:33.583Z,1026.38
2018-11-23T03:19:33.616Z,1026.41
2018-11-23T03:20:33.634Z,1026.37
2018-11-23T03:21:33.661Z,1026.37
2018-11-23T03:22:33.683Z,1026.33
2018-11-23T03:23:33.707Z,1026.37
2018-11-23T03:24:33.739Z,1026.32
2018-11-23T03:25:33.757Z,1026.37
2018-11-23T03:26:33.781Z,1026.35
2018-11-23T03:27:33.813Z,1026.34
2018-11-23T03:28:33.835Z,1026.38
2018-11-23T03:29:33.909Z,1026.38
2018-11-23T03:30:33.885Z,1026.36
2018-11-23T03:31:33.906Z,1026.39
2018-11-23T03:32:33.931Z,1026.38
2018-11-23T03:33:33.958Z,1026.36
2018-11-23T03:34:33.981Z,1026.32
2018-11-23T03:35:34.005Z,1026.32
2018-11-23T03:36:34.031Z,1026.28
2018-11-23T03:37:34.059Z,1026.24
2018-11-23T03:38:34.082Z,1026.28
2018-11-23T03:39:34.311Z,1026.27
2018-11-23T03:40:34.133Z,1026.26
2018-11-23T03:41:34.158Z,1026.25
2018-11-23T03:42:34.180Z,1026.24
2018-11-23T03:43:34.207Z,1026.28
2018-11-23T03:44:34.230Z,1026.27
2018-11-23T03:45:34.257Z,1026.29
2018-11-23T03:46:34.285Z,1026.26
2018-11-23T03:47:34.307Z,1026.22
2018-11-23T03:48:34.329Z,1026.26
2018-11-23T03:49:34.353Z,1026.22
2018-11-23T03:50:34.379Z,1026.25
2018-11-23T03:51:34.404Z,1026.26
2018-11-23T03:52:34.438Z,1026.24
2018-11-23T03:53:34.458Z,1026.26
2018-11-23T03:54:34.480Z,1026.24
2018-11-23T03:55:34.503Z,1026.24
2018-11-23T03:56:34.530Z,1026.23
2018-11-23T03:57:34.554Z,1026.22
2018-11-23T03:58:34.581Z,1026.23
2018-11-23T03:59:34.604Z,1026.22
2018-11-23T04:00:34.636Z,1026.22
2018-11-23T04:01:34.654Z,1026.24
2018-11-23T04:02:34.681Z,1026.23
2018-11-23T04:03:34.707Z,1026.23
2018-11-23T04:04:34.730Z,1026.26
2018-11-23T04:05:34.755Z,1026.20
2018-11-23T04:06:34.779Z,1026.25
2018-11-23T04:07:34.808Z,1026.23
2018-11-23T04:08:34.837Z,1026.21
2018-11-23T04:09:34.865Z,1026.21
2018-11-23T04:10:34.882Z,1026.24
2018-11-23T04:11:34.908Z,1026.28
2018-11-23T04:12:34.930Z,1026.25
2018-11-23T04:13:34.955Z,1026.27
2018-11-23T04:14:34.981Z,1026.27
2018-11-23T04:15:35.006Z,1026.25
2018-11-23T04:16:35.029Z,1026.28
2018-11-23T04:17:35.056Z,1026.28
2018-11-23T04:18:35.081Z,1026.26
2018-11-23T04:19:35.106Z,1026.25
2018-11-23T04:20:35.129Z,1026.27
2018-11-23T04:21:35.159Z,1026.27
2018-11-23T04:22:35.180Z,1026.28
2018-11-23T04:23:35.206Z,1026.26
2018-11-23T04:24:35.236Z,1026.26
2018-11-23T04:25:35.258Z,1026.27
2018-11-23T04:26:35.281Z,1026.25
2018-11-23T04:27:35.307Z,1026.26
2018-11-23T04:28:35.330Z,1026.27
2018-11-23T04:29:35.365Z,1026.28
2018-11-23T04:30:35.384Z,1026.28
2018-11-23T04:31:35.408Z,1026.23
2018-11-23T04:32:35.432Z,1026.28
2018-11-23T04:33:35.458Z,1026.25
2018-11-23T04:34:35.483Z,1026.26
2018-11-23T04:35:35.508Z,1026.28
2018-11-23T04:36:35.531Z,1026.29
2018-11-23T04:37:35.559Z,1026.22
2018-11-23T04:38:35.582Z,1026.24
2018-11-23T04:39:35.607Z,1026.25
2018-11-23T04:40:35.632Z,1026.25
2018-11-23T04:41:35.658Z,1026.25
2018-11-23T04:42:35.683Z,1026.30
2018-11-23T04:43:35.712Z,1026.29
2018-11-23T04:44:35.732Z,1026.27
2018-11-23T04:45:35.757Z,1026.32
2018-11-23T04:46:35.784Z,1026.31
2018-11-23T04:47:35.810Z,1026.33
2018-11-23T04:48:35.832Z,1026.31
2018-11-23T04:49:35.857Z,1026.29
2018-11-23T04:50:35.885Z,1026.30
2018-11-23T04:51:35.908Z,1026.27
2018-11-23T04:52:35.938Z,1026.32
2018-11-23T04:53:35.958Z,1026.30
2018-11-23T04:54:35.987Z,1026.30
2018-11-23T04:55:36.012Z,1026.32
2018-11-23T04:56:36.036Z,1026.28
2018-11-23T04:57:36.061Z,1026.26
2018-11-23T04:58:36.085Z,1026.27
2018-11-23T04:59:36.108Z,1026.24
2018-11-23T05:00:36.134Z,1026.26
2018-11-23T05:01:36.160Z,1026.25
2018-11-23T05:02:36.183Z,1026.23
2018-11-23T05:03:36.210Z,1026.21
2018-11-23T05:04:36.236Z,1026.24
2018-11-23T05:05:36.262Z,1026.21
2018-11-23T05:06:36.284Z,1026.24
2018-11-23T05:07:36.308Z,1026.25
2018-11-23T05:08:36.337Z,1026.22
2018-11-23T05:09:36.363Z,1026.20
2018-11-23T05:10:36.384Z,1026.19
2018-11-23T05:11:36.410Z,1026.18
2018-11-23T05:12:36.433Z,1026.16
2018-11-23T05:13:36.459Z,1026.10
2018-11-23T05:14:36.487Z,1026.15
2018-11-23T05:15:36.508Z,1026.13
2018-11-23T05:16:36.534Z,1026.16
2018-11-23T05:17:36.563Z,1026.17
2018-11-23T05:18:36.584Z,1026.17
2018-11-23T05:19:36.608Z,1026.17
2018-11-23T05:20:36.641Z,1026.17
2018-11-23T05:21:36.661Z,1026.15
2018-11-23T05:22:36.689Z,1026.12
2018-11-23T05:23:36.711Z,1026.18
2018-11-23T05:24:36.734Z,1026.16
2018-11-23T05:25:36.762Z,1026.19
2018-11-23T05:26:36.793Z,1026.16
2018-11-23T05:27:36.810Z,1026.19
2018-11-23T05:28:36.842Z,1026.17
2018-11-23T05:29:36.863Z,1026.14
2018-11-23T05:30:36.886Z,1026.16
2018-11-23T05:31:36.913Z,1026.13
2018-11-23T05:32:36.938Z,1026.14
2018-11-23T05:33:36.960Z,1026.14
2018-11-23T05:34:36.993Z,1026.15
2018-11-23T05:35:37.014Z,1026.17
2018-11-23T05:36:37.629Z,1026.16
2018-11-23T05:37:37.061Z,1026.15
2018-11-23T05:38:37.087Z,1026.17
2018-11-23T05:39:37.115Z,1026.11
2018-11-23T05:40:37.136Z,1026.20
2018-11-23T05:41:37.161Z,1026.18
2018-11-23T05:42:37.187Z,1026.15
2018-11-23T05:43:37.214Z,1026.18
2018-11-23T05:44:37.238Z,1026.19
2018-11-23T05:45:37.263Z,1026.14
2018-11-23T05:46:37.286Z,1026.15
2018-11-23T05:47:37.311Z,1026.14
2018-11-23T05:48:37.336Z,1026.09
2018-11-23T05:49:37.361Z,1026.14
2018-11-23T05:50:37.388Z,1026.12
2018-11-23T05:51:37.418Z,1026.13
2018-11-23T05:52:37.436Z,1026.15
2018-11-23T05:53:37.463Z,1026.15
2018-11-23T05:54:37.487Z,1026.14
2018-11-23T05:55:37.511Z,1026.14
2018-11-23T05:56:37.536Z,1026.16
2018-11-23T05:57:37.560Z,1026.12
2018-11-23T05:58:37.588Z,1026.19
2018-11-23T05:59:37.609Z,1026.17
2018-11-23T06:00:37.634Z,1026.20
2018-11-23T06:01:37.671Z,1026.21
2018-11-23T06:02:37.684Z,1026.19
2018-11-23T06:03:37.709Z,1026.22
2018-11-23T06:04:37.734Z,1026.22
2018-11-23T06:05:37.758Z,1026.24
2018-11-23T06:06:42.227Z,1026.18
2018-11-23T06:07:37.810Z,1026.22
2018-11-23T06:08:37.833Z,1026.22
2018-11-23T06:09:37.866Z,1026.23
2018-11-23T06:10:37.885Z,1026.25
2018-11-23T06:11:37.909Z,1026.25
2018-11-23T06:12:37.932Z,1026.27
2018-11-23T06:13:37.960Z,1026.28
2018-11-23T06:14:37.984Z,1026.25
2018-11-23T06:15:40.475Z,1026.26
2018-11-23T06:16:38.032Z,1026.28
2018-11-23T06:17:38.058Z,1026.26
2018-11-23T06:18:38.083Z,1026.27
2018-11-23T06:19:38.107Z,1026.30
2018-11-23T06:20:38.131Z,1026.26
2018-11-23T06:21:38.157Z,1026.24
2018-11-23T06:22:38.183Z,1026.26
2018-11-23T06:23:38.206Z,1026.28
2018-11-23T06:24:38.233Z,1026.28
2018-11-23T06:25:38.263Z,1026.30
2018-11-23T06:26:38.294Z,1026.28
2018-11-23T06:27:38.304Z,1026.33
2018-11-23T06:28:38.332Z,1026.32
2018-11-23T06:29:38.361Z,1026.31
2018-11-23T06:30:38.382Z,1026.29
2018-11-23T06:31:38.406Z,1026.31
2018-11-23T06:32:38.430Z,1026.29
2018-11-23T06:33:38.462Z,1026.26
2018-11-23T06:34:38.484Z,1026.26
2018-11-23T06:35:38.506Z,1026.29
2018-11-23T06:36:38.533Z,1026.30
2018-11-23T06:37:38.556Z,1026.31
2018-11-23T06:38:38.584Z,1026.29
2018-11-23T06:39:38.609Z,1026.30
2018-11-23T06:40:38.630Z,1026.34
2018-11-23T06:41:38.654Z,1026.30
2018-11-23T06:42:42.241Z,1026.36
2018-11-23T06:43:38.705Z,1026.39
2018-11-23T06:44:38.729Z,1026.39
2018-11-23T06:45:38.753Z,1026.36
2018-11-23T06:46:38.787Z,1026.42
2018-11-23T06:47:38.805Z,1026.43
2018-11-23T06:48:38.830Z,1026.45
2018-11-23T06:49:38.852Z,1026.46
2018-11-23T06:50:38.880Z,1026.44
2018-11-23T06:51:38.902Z,1026.45
2018-11-23T06:52:38.928Z,1026.48
2018-11-23T06:53:38.951Z,1026.46
2018-11-23T06:54:38.978Z,1026.47
2018-11-23T06:55:39.000Z,1026.46
2018-11-23T06:56:39.028Z,1026.47
2018-11-23T06:57:39.052Z,1026.51
2018-11-23T06:58:39.083Z,1026.50
2018-11-23T06:59:39.103Z,1026.47
2018-11-23T07:00:39.129Z,1026.49
2018-11-23T07:01:39.150Z,1026.48
2018-11-23T07:02:39.178Z,1026.48
2018-11-23T07:03:39.203Z,1026.46
2018-11-23T07:04:39.224Z,1026.50
2018-11-23T07:05:39.252Z,1026.50
2018-11-23T07:06:39.273Z,1026.48
2018-11-23T07:07:39.305Z,1026.52
2018-11-23T07:08:39.323Z,1026.52
2018-11-23T07:09:39.348Z,1026.55
2018-11-23T07:10:39.374Z,1026.57
2018-11-23T07:11:39.397Z,1026.56
2018-11-23T07:12:39.426Z,1026.55
2018-11-23T07:13:39.448Z,1026.52
2018-11-23T07:14:39.476Z,1026.55
2018-11-23T07:15:39.496Z,1026.51
2018-11-23T07:16:39.523Z,1026.50
2018-11-23T07:17:39.550Z,1026.51
2018-11-23T07:18:39.571Z,1026.51
2018-11-23T07:19:39.595Z,1026.49
2018-11-23T07:20:39.621Z,1026.50
2018-11-23T07:21:39.645Z,1026.50
2018-11-23T07:22:39.678Z,1026.54
2018-11-23T07:23:39.698Z,1026.46
2018-11-23T07:24:39.722Z,1026.51
2018-11-23T07:25:39.746Z,1026.50
2018-11-23T07:26:39.771Z,1026.52
2018-11-23T07:27:39.802Z,1026.53
2018-11-23T07:28:39.822Z,1026.50
2018-11-23T07:29:39.847Z,1026.53
2018-11-23T07:30:39.872Z,1026.49
2018-11-23T07:31:39.896Z,1026.47
2018-11-23T07:32:39.925Z,1026.50
2018-11-23T07:33:39.944Z,1026.46
2018-11-23T07:34:39.968Z,1026.48
2018-11-23T07:35:39.994Z,1026.48
2018-11-23T07:36:40.018Z,1026.49
2018-11-23T07:37:40.042Z,1026.49
2018-11-23T07:38:40.067Z,1026.53
2018-11-23T07:39:40.090Z,1026.53
2018-11-23T07:40:40.115Z,1026.49
2018-11-23T07:41:40.142Z,1026.54
2018-11-23T07:42:40.169Z,1026.52
2018-11-23T07:43:40.188Z,1026.53
2018-11-23T07:44:40.213Z,1026.49
2018-11-23T07:45:40.238Z,1026.48
2018-11-23T07:46:40.267Z,1026.51
2018-11-23T07:47:40.287Z,1026.50
2018-11-23T07:48:40.316Z,1026.50
2018-11-23T07:49:40.339Z,1026.52
2018-11-23T07:50:40.365Z,1026.51
2018-11-23T07:51:40.393Z,1026.44
2018-11-23T07:52:40.412Z,1026.46
2018-11-23T07:53:40.441Z,1026.44
2018-11-23T07:54:40.464Z,1026.43
2018-11-23T07:55:40.489Z,1026.41
2018-11-23T07:56:40.514Z,1026.48
2018-11-23T07:57:40.543Z,1026.43
2018-11-23T07:58:40.561Z,1026.50
2018-11-23T07:59:40.587Z,1026.48
2018-11-23T08:00:40.610Z,1026.53
2018-11-23T08:01:40.641Z,1026.52
2018-11-23T08:02:40.660Z,1026.53
2018-11-23T08:03:40.685Z,1026.52
2018-11-23T08:04:40.714Z,1026.49
2018-11-23T08:05:40.734Z,1026.50
2018-11-23T08:06:40.759Z,1026.46
2018-11-23T08:07:40.784Z,1026.49
2018-11-23T08:08:40.814Z,1026.51
2018-11-23T08:09:40.834Z,1026.52
2018-11-23T08:10:40.861Z,1026.50
2018-11-23T08:11:40.891Z,1026.52
2018-11-23T08:12:40.912Z,1026.52
2018-11-23T08:13:40.946Z,1026.55
2018-11-23T08:14:40.960Z,1026.50
2018-11-23T08:15:40.983Z,1026.48
2018-11-23T08:16:41.009Z,1026.45
2018-11-23T08:17:41.035Z,1026.49
2018-11-23T08:18:41.060Z,1026.48
2018-11-23T08:19:47.213Z,1026.50
2018-11-23T08:20:41.108Z,1026.54
2018-11-23T08:21:41.175Z,1026.48
2018-11-23T08:22:41.165Z,1026.45
2018-11-23T08:23:41.184Z,1026.44
2018-11-23T08:24:41.212Z,1026.42
2018-11-23T08:25:41.239Z,1026.37
2018-11-23T08:26:41.259Z,1026.35
2018-11-23T08:27:41.285Z,1026.41
2018-11-23T08:28:41.309Z,1026.40
2018-11-23T08:29:41.333Z,1026.38
2018-11-23T08:30:41.360Z,1026.43
2018-11-23T08:31:41.384Z,1026.41
2018-11-23T08:32:41.412Z,1026.41
2018-11-23T08:33:41.437Z,1026.44
2018-11-23T08:34:41.460Z,1026.48
2018-11-23T08:35:41.485Z,1026.44
2018-11-23T08:36:41.509Z,1026.48
2018-11-23T08:37:41.539Z,1026.42
2018-11-23T08:38:41.570Z,1026.43
2018-11-23T08:39:41.585Z,1026.42
2018-11-23T08:40:41.611Z,1026.44
2018-11-23T08:41:41.637Z,1026.42
2018-11-23T08:42:41.662Z,1026.44
2018-11-23T08:43:41.685Z,1026.42
2018-11-23T08:44:41.713Z,1026.44
2018-11-23T08:45:41.739Z,1026.46
2018-11-23T08:46:41.762Z,1026.47
2018-11-23T08:47:41.787Z,1026.48
2018-11-23T08:48:41.828Z,1026.48
2018-11-23T08:49:41.846Z,1026.50
2018-11-23T08:50:41.870Z,1026.50
2018-11-23T08:51:41.890Z,1026.50
2018-11-23T08:52:41.915Z,1026.49
2018-11-23T08:53:41.941Z,1026.50
2018-11-23T08:54:41.969Z,1026.49
2018-11-23T08:55:41.991Z,1026.50
2018-11-23T08:56:42.017Z,1026.50
2018-11-23T08:57:42.043Z,1026.46
2018-11-23T08:58:42.069Z,1026.46
2018-11-23T08:59:42.095Z,1026.49
2018-11-23T09:00:42.120Z,1026.50
2018-11-23T09:01:42.159Z,1026.45
2018-11-23T09:02:42.171Z,1026.45
2018-11-23T09:03:42.199Z,1026.45
2018-11-23T09:04:42.225Z,1026.46
2018-11-23T09:05:42.252Z,1026.43
2018-11-23T09:06:42.282Z,1026.42
2018-11-23T09:07:42.304Z,1026.44
2018-11-23T09:08:42.324Z,1026.45
2018-11-23T09:09:42.353Z,1026.46
2018-11-23T09:10:42.378Z,1026.47
2018-11-23T09:11:42.403Z,1026.44
2018-11-23T09:12:42.431Z,1026.47
2018-11-23T09:13:42.458Z,1026.46
2018-11-23T09:14:42.480Z,1026.46
2018-11-23T09:15:42.506Z,1026.40
2018-11-23T09:16:42.531Z,1026.38
2018-11-23T09:17:42.560Z,1026.41
2018-11-23T09:18:42.584Z,1026.38
2018-11-23T09:19:42.611Z,1026.34
2018-11-23T09:20:42.636Z,1026.32
2018-11-23T09:21:42.661Z,1026.32
2018-11-23T09:22:42.692Z,1026.31
2018-11-23T09:23:42.714Z,1026.34
2018-11-23T09:24:42.744Z,1026.29
2018-11-23T09:25:42.765Z,1026.31
2018-11-23T09:26:42.791Z,1026.31
2018-11-23T09:27:42.821Z,1026.33
2018-11-23T09:28:42.843Z,1026.31
2018-11-23T09:29:42.881Z,1026.31
2018-11-23T09:30:42.896Z,1026.29
2018-11-23T09:31:42.922Z,1026.31
2018-11-23T09:32:42.948Z,1026.26
2018-11-23T09:33:42.974Z,1026.23
2018-11-23T09:34:43.002Z,1026.26
2018-11-23T09:35:43.032Z,1026.26
2018-11-23T09:36:43.052Z,1026.21
2018-11-23T09:37:43.080Z,1026.22
2018-11-23T09:38:43.105Z,1026.18
2018-11-23T09:39:43.134Z,1026.19
2018-11-23T09:40:43.163Z,1026.17
2018-11-23T09:41:43.184Z,1026.17
2018-11-23T09:42:43.213Z,1026.16
2018-11-23T09:43:43.235Z,1026.14
2018-11-23T09:44:43.268Z,1026.12
2018-11-23T09:45:43.287Z,1026.06
2018-11-23T09:46:43.314Z,1026.03
2018-11-23T09:47:43.343Z,1026.09
2018-11-23T09:48:43.364Z,1026.03
2018-11-23T09:49:43.392Z,1026.00
2018-11-23T09:50:43.417Z,1026.05
2018-11-23T09:51:43.445Z,1026.05
2018-11-23T09:52:43.470Z,1026.01
2018-11-23T09:53:43.497Z,1025.96
2018-11-23T09:54:43.523Z,1025.97
2018-11-23T09:55:43.552Z,1025.98
2018-11-23T09:56:43.575Z,1025.97
2018-11-23T09:57:43.599Z,1025.95
2018-11-23T09:58:43.952Z,1025.93
2018-11-23T09:59:43.651Z,1025.95
2018-11-23T10:00:43.680Z,1025.94
2018-11-23T10:01:43.706Z,1025.99
2018-11-23T10:02:43.730Z,1025.98
2018-11-23T10:03:43.756Z,1025.93
2018-11-23T10:04:43.782Z,1025.90
2018-11-23T10:05:43.810Z,1025.89
2018-11-23T10:06:43.889Z,1025.87
2018-11-23T10:07:43.861Z,1025.87
2018-11-23T10:08:43.887Z,1025.88
2018-11-23T10:09:43.914Z,1025.87
2018-11-23T10:10:43.941Z,1025.86
2018-11-23T10:11:43.974Z,1025.87
2018-11-23T10:12:43.992Z,1025.82
2018-11-23T10:13:44.021Z,1025.88
2018-11-23T10:14:44.047Z,1025.87
2018-11-23T10:15:44.071Z,1025.86
2018-11-23T10:16:44.096Z,1025.87
2018-11-23T10:17:44.122Z,1025.88
2018-11-23T10:18:44.151Z,1025.93
2018-11-23T10:19:44.174Z,1025.90
2018-11-23T10:20:44.199Z,1025.86
2018-11-23T10:21:44.227Z,1025.88
2018-11-23T10:22:44.253Z,1025.84
2018-11-23T10:23:44.286Z,1025.83
2018-11-23T10:24:44.303Z,1025.82
2018-11-23T10:25:44.330Z,1025.80
2018-11-23T10:26:44.383Z,1025.86
2018-11-23T10:27:44.423Z,1025.83
2018-11-23T10:28:44.415Z,1025.80
2018-11-23T10:29:44.438Z,1025.83
2018-11-23T10:30:44.460Z,1025.87
2018-11-23T10:31:44.493Z,1025.83
2018-11-23T10:32:44.519Z,1025.88
2018-11-23T10:33:44.538Z,1025.86
2018-11-23T10:34:44.565Z,1025.83
2018-11-23T10:35:44.593Z,1025.88
2018-11-23T10:36:44.622Z,1025.81
2018-11-23T10:37:44.641Z,1025.86
2018-11-23T10:38:44.668Z,1025.81
2018-11-23T10:39:44.692Z,1025.81
2018-11-23T10:40:44.719Z,1025.84
2018-11-23T10:41:44.744Z,1025.83
2018-11-23T10:42:44.774Z,1025.83
2018-11-23T10:43:44.798Z,1025.82
2018-11-23T10:44:44.821Z,1025.82
2018-11-23T10:45:44.850Z,1025.77
2018-11-23T10:46:44.883Z,1025.76
2018-11-23T10:47:44.901Z,1025.76
2018-11-23T10:48:44.925Z,1025.73
2018-11-23T10:49:44.951Z,1025.73
2018-11-23T10:50:44.977Z,1025.73
2018-11-23T10:51:45.007Z,1025.73
2018-11-23T10:52:45.029Z,1025.72
2018-11-23T10:54:45.084Z,1025.68
2018-11-23T10:55:45.105Z,1025.73
2018-11-23T10:56:45.146Z,1025.70
2018-11-23T10:57:45.160Z,1025.69
2018-11-23T10:58:45.187Z,1025.69
2018-11-23T10:59:45.249Z,1025.67
2018-11-23T11:00:45.238Z,1025.68
2018-11-23T11:01:45.264Z,1025.70
2018-11-23T11:02:45.296Z,1025.66
2018-11-23T11:03:45.314Z,1025.71
2018-11-23T11:04:45.342Z,1025.61
2018-11-23T11:05:45.366Z,1025.61
2018-11-23T11:06:45.394Z,1025.63
2018-11-23T11:07:45.419Z,1025.65
2018-11-23T11:08:45.446Z,1025.60
2018-11-23T11:09:45.470Z,1025.58
2018-11-23T11:10:45.499Z,1025.57
2018-11-23T11:11:45.522Z,1025.60
2018-11-23T11:12:45.549Z,1025.63
2018-11-23T11:13:45.575Z,1025.60
2018-11-23T11:14:45.603Z,1025.54
2018-11-23T11:15:45.633Z,1025.56
2018-11-23T11:16:45.656Z,1025.52
2018-11-23T11:17:45.681Z,1025.55
2018-11-23T11:18:45.709Z,1025.51
2018-11-23T11:19:45.735Z,1025.51
2018-11-23T11:20:45.762Z,1025.50
2018-11-23T11:21:45.787Z,1025.47
2018-11-23T11:22:45.809Z,1025.46
2018-11-23T11:23:45.837Z,1025.43
2018-11-23T11:24:45.869Z,1025.44
2018-11-23T11:25:45.891Z,1025.42
2018-11-23T11:26:45.917Z,1025.42
2018-11-23T11:27:45.940Z,1025.38
2018-11-23T11:28:45.966Z,1025.40
2018-11-23T11:29:45.997Z,1025.42
2018-11-23T11:30:46.019Z,1025.42
2018-11-23T11:31:46.044Z,1025.38
2018-11-23T11:32:46.070Z,1025.35
2018-11-23T11:33:46.096Z,1025.40
2018-11-23T11:34:46.124Z,1025.35
2018-11-23T11:35:46.152Z,1025.37
2018-11-23T11:36:46.176Z,1025.41
2018-11-23T11:37:46.201Z,1025.35
2018-11-23T11:38:46.343Z,1025.34
2018-11-23T11:39:46.255Z,1025.33
2018-11-23T11:40:46.284Z,1025.36
2018-11-23T11:41:46.309Z,1025.32
2018-11-23T11:42:46.333Z,1025.31
2018-11-23T11:43:46.355Z,1025.31
2018-11-23T11:44:46.382Z,1025.32
2018-11-23T11:45:46.411Z,1025.31
2018-11-23T11:46:46.438Z,1025.33
2018-11-23T11:47:46.461Z,1025.34
2018-11-23T11:48:46.489Z,1025.32
2018-11-23T11:49:46.513Z,1025.35
2018-11-23T11:50:46.538Z,1025.31
2018-11-23T11:51:46.564Z,1025.32
2018-11-23T11:52:46.597Z,1025.29
2018-11-23T11:53:46.618Z,1025.30
2018-11-23T11:54:46.642Z,1025.28
2018-11-23T11:55:46.717Z,1025.26
2018-11-23T11:56:46.693Z,1025.31
2018-11-23T11:57:46.722Z,1025.29
2018-11-23T11:58:46.746Z,1025.30
2018-11-23T11:59:46.774Z,1025.26
2018-11-23T12:00:46.797Z,1025.29
2018-11-23T12:01:46.824Z,1025.32
2018-11-23T12:02:46.849Z,1025.29
2018-11-23T12:03:46.875Z,1025.27
2018-11-23T12:04:46.911Z,1025.28
2018-11-23T12:05:46.928Z,1025.25
2018-11-23T12:06:46.954Z,1025.26